Time;durP1;ratioP1;P1;durP2;ratioP2;P2;SDS_P1;SDS_P2;PMS_P1;PMS_P2;Temp;Humidity;BMP_temperature;BMP_pressure;BME280_temperature;BME280_humidity;BME280_pressure;Samples;Min_cycle;Max_cycle;Signal;HPM_P1;HPM_P2
2024/03/14 00:00:34;;;;;;;21.30;12.40;;;;;;;11.54;100.00;100624.91;5133870;28;20030;-74
2024/03/14 00:03:05;;;;;;;23.77;12.52;;;;;;;11.54;100.00;100626.66;5134846;28;20117;-72
2024/03/14 00:05:37;;;;;;;22.17;12.73;;;;;;;11.47;100.00;100630.44;5137599;28;20611;-73
2024/03/14 00:08:07;;;;;;;21.38;12.45;;;;;;;11.53;100.00;100624.94;5132520;28;20049;-72
2024/03/14 00:10:37;;;;;;;22.20;11.88;;;;;;;11.46;100.00;100632.19;5134627;28;20030;-74
2024/03/14 00:13:08;;;;;;;22.83;12.25;;;;;;;11.39;100.00;100633.34;5148498;28;20019;-74
2024/03/14 00:15:38;;;;;;;23.23;13.38;;;;;;;11.36;100.00;100627.38;5137499;28;20123;-74
2024/03/14 00:18:09;;;;;;;22.83;12.60;;;;;;;11.35;100.00;100621.28;5135037;28;20035;-74
2024/03/14 00:20:42;;;;;;;25.90;13.82;;;;;;;11.36;100.00;100625.63;5138349;28;20038;-74
2024/03/14 00:23:13;;;;;;;24.10;13.10;;;;;;;11.43;100.00;100616.59;5136346;28;20041;-75
2024/03/14 00:25:43;;;;;;;23.60;12.68;;;;;;;11.37;100.00;100618.59;5136579;28;20513;-73
2024/03/14 00:28:14;;;;;;;23.42;13.27;;;;;;;11.38;100.00;100623.78;5135892;28;20031;-74
2024/03/14 00:30:44;;;;;;;25.38;13.70;;;;;;;11.40;100.00;100619.34;5142047;28;20244;-73
2024/03/14 00:33:14;;;;;;;23.88;13.27;;;;;;;11.36;100.00;100616.91;5141589;28;20034;-75
2024/03/14 00:35:45;;;;;;;25.17;13.45;;;;;;;11.32;100.00;100617.94;5141714;28;20023;-74
2024/03/14 00:38:15;;;;;;;25.60;14.02;;;;;;;11.33;100.00;100610.03;5143570;28;20034;-74
2024/03/14 00:40:45;;;;;;;25.05;13.45;;;;;;;11.31;100.00;100609.22;5143842;28;20035;-73
2024/03/14 00:43:16;;;;;;;25.17;14.02;;;;;;;11.40;100.00;100603.66;5140663;28;20063;-74
2024/03/14 00:45:47;;;;;;;26.40;14.82;;;;;;;11.38;100.00;100597.63;5141781;28;20524;-74
2024/03/14 00:48:17;;;;;;;25.80;14.10;;;;;;;11.41;100.00;100599.28;5138964;28;20286;-75
2024/03/14 00:50:49;;;;;;;32.28;15.65;;;;;;;11.41;100.00;100600.13;5139638;28;20054;-74
2024/03/14 00:53:19;;;;;;;25.02;13.80;;;;;;;11.48;100.00;100601.56;5137499;28;20030;-74
2024/03/14 00:55:50;;;;;;;28.05;14.52;;;;;;;11.47;100.00;100594.63;5142049;28;20034;-73
2024/03/14 00:58:20;;;;;;;28.33;15.40;;;;;;;11.44;100.00;100597.38;5138477;28;20041;-74
2024/03/14 01:00:51;;;;;;;29.55;14.88;;;;;;;11.44;100.00;100594.75;5137867;28;20038;-73
2024/03/14 01:03:22;;;;;;;29.27;14.85;;;;;;;11.46;100.00;100592.94;5140364;28;20045;-74
2024/03/14 01:05:52;;;;;;;31.40;16.20;;;;;;;11.38;100.00;100586.28;5140449;28;20045;-73
2024/03/14 01:08:22;;;;;;;31.50;16.15;;;;;;;11.36;100.00;100596.84;5139043;28;20053;-74
2024/03/14 01:10:53;;;;;;;29.88;15.50;;;;;;;11.39;100.00;100595.84;5142593;28;20543;-74
2024/03/14 01:13:25;;;;;;;30.85;16.27;;;;;;;11.39;100.00;100596.72;5140683;28;20030;-74
2024/03/14 01:15:56;;;;;;;30.13;15.90;;;;;;;11.44;100.00;100583.44;5142412;28;20046;-74
2024/03/14 01:18:26;;;;;;;34.40;15.93;;;;;;;11.39;100.00;100591.47;5141686;28;20027;-74
2024/03/14 01:20:57;;;;;;;34.47;15.98;;;;;;;11.44;100.00;100588.69;5139883;28;20039;-74
2024/03/14 01:23:27;;;;;;;30.23;15.95;;;;;;;11.42;100.00;100583.50;5139846;28;20342;-74
2024/03/14 01:25:57;;;;;;;35.58;17.15;;;;;;;11.40;100.00;100587.06;5145693;28;20073;-74
2024/03/14 01:28:29;;;;;;;32.92;17.38;;;;;;;11.40;100.00;100585.31;5141843;28;20062;-75
2024/03/14 01:31:00;;;;;;;29.83;15.85;;;;;;;11.40;100.00;100577.47;5153225;28;20584;-73
2024/03/14 01:33:31;;;;;;;34.67;16.92;;;;;;;11.42;100.00;100578.25;5138643;28;20034;-74
2024/03/14 01:36:01;;;;;;;31.52;16.30;;;;;;;11.40;100.00;100574.00;5141493;28;20035;-73
2024/03/14 01:38:34;;;;;;;31.63;16.48;;;;;;;11.35;100.00;100579.44;5139255;28;20054;-74
2024/03/14 01:41:16;;;;;;;32.17;15.45;;;;;;;11.34;100.00;100572.50;5139642;28;20031;-73
2024/03/14 01:43:56;;;;;;;30.35;15.63;;;;;;;11.29;100.00;100571.78;5138618;28;20040;-74
2024/03/14 01:46:29;;;;;;;33.90;16.48;;;;;;;11.30;100.00;100575.28;5131277;28;20035;-74
2024/03/14 01:49:01;;;;;;;34.65;16.90;;;;;;;11.31;100.00;100575.19;5136164;28;20027;-75
2024/03/14 01:51:31;;;;;;;34.33;17.23;;;;;;;11.31;100.00;100571.75;5139682;28;20133;-74
2024/03/14 01:54:01;;;;;;;31.45;15.90;;;;;;;11.35;100.00;100574.19;5140274;28;20476;-73
2024/03/14 01:56:32;;;;;;;35.90;15.30;;;;;;;11.44;100.00;100565.13;5138693;28;20034;-73
2024/03/14 01:59:03;;;;;;;33.00;15.15;;;;;;;11.46;100.00;100556.28;5137200;28;20577;-73
2024/03/14 02:01:33;;;;;;;32.42;16.30;;;;;;;11.49;100.00;100560.56;5136602;28;20030;-74
2024/03/14 02:04:09;;;;;;;32.60;15.70;;;;;;;11.48;100.00;100553.63;5137896;28;20035;-75
2024/03/14 02:06:51;;;;;;;34.70;16.40;;;;;;;11.44;100.00;100562.50;5139164;28;20022;-74
2024/03/14 02:09:22;;;;;;;30.02;15.45;;;;;;;11.40;100.00;100561.78;5138417;28;20371;-74
2024/03/14 02:11:52;;;;;;;28.13;15.05;;;;;;;11.46;100.00;100558.91;5138620;28;20582;-74
2024/03/14 02:14:23;;;;;;;30.48;15.15;;;;;;;11.58;100.00;100558.47;5141076;28;20033;-74
2024/03/14 02:16:55;;;;;;;33.72;16.42;;;;;;;11.39;100.00;100560.06;5137609;28;20397;-74
2024/03/14 02:19:25;;;;;;;30.25;15.50;;;;;;;11.42;100.00;100567.78;5135847;28;20026;-74
2024/03/14 02:22:00;;;;;;;29.48;15.02;;;;;;;11.33;100.00;100562.94;5137849;28;20066;-73
2024/03/14 02:24:31;;;;;;;30.63;15.15;;;;;;;11.33;100.00;100552.47;5138730;28;20026;-74
2024/03/14 02:27:04;;;;;;;32.13;16.00;;;;;;;11.42;100.00;100549.47;5140718;28;20034;-73
2024/03/14 02:29:34;;;;;;;30.95;16.05;;;;;;;11.45;100.00;100554.59;5138108;28;20018;-74
2024/03/14 02:32:05;;;;;;;27.63;14.90;;;;;;;11.40;100.00;100555.69;5135227;28;20089;-73
2024/03/14 02:34:36;;;;;;;33.67;16.70;;;;;;;11.30;100.00;100552.56;5137463;28;20044;-74
2024/03/14 02:37:06;;;;;;;30.73;15.32;;;;;;;11.27;100.00;100544.00;5137404;28;20030;-74
2024/03/14 02:39:36;;;;;;;27.88;14.80;;;;;;;11.22;100.00;100544.19;5138824;28;20030;-74
2024/03/14 02:42:10;;;;;;;28.83;15.07;;;;;;;11.17;100.00;100550.50;5135875;28;20052;-73
2024/03/14 02:44:40;;;;;;;30.23;15.50;;;;;;;11.15;100.00;100544.47;5140475;28;20110;-75
2024/03/14 02:47:10;;;;;;;30.45;15.43;;;;;;;11.28;100.00;100536.06;5139705;28;20528;-74
2024/03/14 02:49:41;;;;;;;29.10;15.52;;;;;;;11.33;100.00;100534.16;5138152;28;20026;-73
2024/03/14 02:52:11;;;;;;;30.23;14.20;;;;;;;11.36;100.00;100538.41;5137743;28;20027;-74
2024/03/14 02:54:42;;;;;;;29.48;15.73;;;;;;;11.37;100.00;100535.72;5139372;28;20295;-74
2024/03/14 02:57:12;;;;;;;33.13;15.95;;;;;;;11.37;100.00;100530.50;5139442;28;20552;-74
2024/03/14 02:59:42;;;;;;;28.85;14.77;;;;;;;11.40;100.00;100535.59;5140328;28;20018;-74
2024/03/14 03:02:15;;;;;;;30.08;14.13;;;;;;;11.43;100.00;100530.25;5137295;28;20035;-74
2024/03/14 03:04:45;;;;;;;28.95;14.50;;;;;;;11.33;100.00;100531.53;5136727;28;20085;-74
2024/03/14 03:07:18;;;;;;;30.90;15.40;;;;;;;11.32;100.00;100524.59;5137360;28;20026;-74
2024/03/14 03:09:49;;;;;;;31.77;15.02;;;;;;;11.31;100.00;100525.50;5135562;28;20015;-74
2024/03/14 03:12:19;;;;;;;28.00;15.30;;;;;;;11.26;100.00;100527.44;5136307;28;20572;-73
2024/03/14 03:14:52;;;;;;;29.17;14.80;;;;;;;11.33;100.00;100525.44;5138334;28;20034;-73
2024/03/14 03:17:23;;;;;;;32.67;14.90;;;;;;;11.28;100.00;100524.78;5140927;28;20433;-74
2024/03/14 03:19:53;;;;;;;30.30;15.10;;;;;;;11.20;100.00;100527.69;5136127;28;20025;-73
2024/03/14 03:22:28;;;;;;;29.55;14.20;;;;;;;11.22;100.00;100520.63;5140328;28;20597;-72
2024/03/14 03:24:58;;;;;;;27.45;14.73;;;;;;;11.15;100.00;100523.53;5136613;28;20031;-74
2024/03/14 03:27:28;;;;;;;28.25;14.00;;;;;;;11.24;100.00;100529.28;5138166;28;20037;-73
2024/03/14 03:29:58;;;;;;;27.40;13.82;;;;;;;11.23;100.00;100516.22;5136546;28;20030;-73
2024/03/14 03:32:29;;;;;;;30.30;14.32;;;;;;;11.22;100.00;100512.78;5140988;28;20034;-74
2024/03/14 03:34:59;;;;;;;28.55;13.70;;;;;;;11.19;100.00;100519.88;5135485;28;20062;-74
2024/03/14 03:37:29;;;;;;;29.15;13.27;;;;;;;11.29;100.00;100511.63;5135666;28;20038;-74
2024/03/14 03:40:00;;;;;;;30.00;14.60;;;;;;;11.32;100.00;100514.16;5137993;28;20267;-74
2024/03/14 03:42:30;;;;;;;29.25;15.23;;;;;;;11.34;100.00;100512.31;5136456;28;20134;-74
2024/03/14 03:45:01;;;;;;;25.00;12.55;;;;;;;11.23;100.00;100505.78;5138689;28;20117;-74
2024/03/14 03:47:31;;;;;;;29.70;14.13;;;;;;;11.29;100.00;100505.56;5139152;28;20030;-74
2024/03/14 03:50:02;;;;;;;27.27;13.50;;;;;;;11.20;100.00;100506.75;5138663;28;20026;-74
2024/03/14 03:52:32;;;;;;;25.67;13.52;;;;;;;11.16;100.00;100501.72;5139484;28;20479;-73
2024/03/14 03:55:07;;;;;;;26.98;13.55;;;;;;;11.09;100.00;100498.47;5140406;28;20483;-73
2024/03/14 03:57:38;;;;;;;25.73;13.27;;;;;;;11.08;100.00;100501.16;5139885;28;20023;-74
2024/03/14 04:00:32;;;;;;;25.65;12.55;;;;;;;11.13;100.00;100499.22;5139586;28;20627;-74
2024/03/14 04:03:00;;;;;;;25.88;12.80;;;;;;;11.19;100.00;100493.72;5140982;28;20514;-74
2024/03/14 04:05:31;;;;;;;25.08;12.65;;;;;;;11.26;100.00;100493.44;5146057;28;20046;-73
2024/03/14 04:08:01;;;;;;;26.77;12.88;;;;;;;11.28;100.00;100488.16;5143548;28;20031;-72
2024/03/14 04:10:32;;;;;;;24.13;12.48;;;;;;;11.31;100.00;100486.25;5142814;28;20065;-73
2024/03/14 04:13:04;;;;;;;25.58;12.82;;;;;;;11.35;100.00;100493.09;5150240;28;20432;-74
2024/03/14 04:15:36;;;;;;;23.90;12.73;;;;;;;11.32;100.00;100481.88;5143341;28;20041;-73
2024/03/14 04:18:06;;;;;;;24.92;13.40;;;;;;;11.33;100.00;100481.84;5143921;28;20091;-75
2024/03/14 04:20:39;;;;;;;22.17;12.40;;;;;;;11.35;100.00;100472.16;5141296;28;20035;-73
2024/03/14 04:23:10;;;;;;;23.45;12.05;;;;;;;11.36;100.00;100471.25;5162313;28;20038;-73
2024/03/14 04:25:40;;;;;;;25.60;12.23;;;;;;;11.32;100.00;100474.03;5148134;28;20034;-74
2024/03/14 04:28:12;;;;;;;23.80;12.07;;;;;;;11.28;100.00;100473.28;5146916;28;20638;-74
2024/03/14 04:30:45;;;;;;;22.88;12.13;;;;;;;11.24;100.00;100470.88;5143475;28;20045;-75
2024/03/14 04:33:15;;;;;;;25.90;12.63;;;;;;;11.22;100.00;100484.00;5143618;28;20030;-73
2024/03/14 04:35:46;;;;;;;27.83;13.68;;;;;;;11.30;100.00;100481.09;5145932;28;20457;-73
2024/03/14 04:38:18;;;;;;;24.92;12.40;;;;;;;11.37;100.00;100483.41;5147442;28;20031;-75
2024/03/14 04:40:48;;;;;;;26.33;12.18;;;;;;;11.43;100.00;100488.38;5141242;28;20049;-73
2024/03/14 04:43:19;;;;;;;27.90;13.32;;;;;;;11.47;100.00;100489.94;5140663;28;20409;-73
2024/03/14 04:45:49;;;;;;;25.42;12.00;;;;;;;11.46;100.00;100484.81;5146799;28;20034;-73
2024/03/14 04:48:19;;;;;;;28.00;12.48;;;;;;;11.41;100.00;100484.97;5147925;28;20112;-74
2024/03/14 04:50:50;;;;;;;26.52;12.38;;;;;;;11.49;100.00;100482.91;5140838;28;20076;-73
2024/03/14 04:53:20;;;;;;;24.80;11.95;;;;;;;11.51;100.00;100481.09;5143328;28;20440;-75
2024/03/14 04:55:51;;;;;;;25.70;12.98;;;;;;;11.47;100.00;100479.47;5140423;28;20530;-74
2024/03/14 04:58:21;;;;;;;22.73;11.95;;;;;;;11.46;100.00;100476.94;5142139;28;20034;-74
2024/03/14 05:00:52;;;;;;;25.27;11.73;;;;;;;11.50;100.00;100482.00;5144228;28;20380;-73
2024/03/14 05:03:22;;;;;;;26.38;12.18;;;;;;;11.51;100.00;100483.69;5145419;28;20022;-72
2024/03/14 05:05:56;;;;;;;24.75;12.27;;;;;;;11.52;100.00;100482.78;5142232;28;20117;-74
2024/03/14 05:08:26;;;;;;;23.70;12.18;;;;;;;11.49;100.00;100482.91;5143473;28;20034;-74
2024/03/14 05:10:56;;;;;;;25.30;12.23;;;;;;;11.47;100.00;100482.09;5143766;28;20474;-73
2024/03/14 05:13:27;;;;;;;28.20;12.45;;;;;;;11.43;100.00;100477.91;5141015;28;20022;-73
2024/03/14 05:15:57;;;;;;;25.95;11.23;;;;;;;11.45;100.00;100480.47;5142757;28;20450;-73
2024/03/14 05:18:27;;;;;;;23.95;12.52;;;;;;;11.44;100.00;100484.84;5140998;28;20035;-74
2024/03/14 05:20:58;;;;;;;26.30;12.32;;;;;;;11.41;100.00;100481.53;5138908;28;20227;-73
2024/03/14 05:23:29;;;;;;;26.65;12.27;;;;;;;11.41;100.00;100481.53;5139666;28;20033;-74
2024/03/14 05:26:00;;;;;;;26.50;12.32;;;;;;;11.53;100.00;100475.78;5140093;28;20030;-73
2024/03/14 05:28:30;;;;;;;29.48;12.93;;;;;;;11.57;100.00;100480.00;5139395;28;20034;-73
2024/03/14 05:31:01;;;;;;;24.95;12.55;;;;;;;11.55;100.00;100479.16;5141430;28;20077;-74
2024/03/14 05:33:31;;;;;;;26.90;12.85;;;;;;;11.52;100.00;100476.69;5138684;28;20114;-75
2024/03/14 05:36:01;;;;;;;27.70;13.07;;;;;;;11.45;100.00;100475.25;5143710;28;20038;-73
2024/03/14 05:38:32;;;;;;;26.35;12.05;;;;;;;11.42;100.00;100483.22;5141041;28;20030;-73
2024/03/14 05:41:02;;;;;;;25.88;13.02;;;;;;;11.46;100.00;100477.78;5140160;28;20469;-73
2024/03/14 05:43:35;;;;;;;25.60;12.50;;;;;;;11.52;100.00;100474.06;5143265;28;20125;-73
2024/03/14 05:46:05;;;;;;;26.88;12.88;;;;;;;11.49;100.00;100475.06;5139501;28;20042;-75
2024/03/14 05:48:35;;;;;;;25.42;12.73;;;;;;;11.51;100.00;100475.84;5131281;28;20022;-74
2024/03/14 05:51:09;;;;;;;28.55;13.30;;;;;;;11.50;100.00;100478.53;5137341;28;20034;-74
2024/03/14 05:53:39;;;;;;;21.85;11.93;;;;;;;11.52;100.00;100477.56;5142132;28;20124;-74
2024/03/14 05:56:10;;;;;;;27.00;12.40;;;;;;;11.52;100.00;100481.91;5141374;28;20113;-74
2024/03/14 05:58:40;;;;;;;26.77;12.68;;;;;;;11.52;100.00;100487.16;5139641;28;20027;-73
2024/03/14 06:01:11;;;;;;;25.60;12.27;;;;;;;11.58;100.00;100477.31;5137925;28;20030;-74
2024/03/14 06:03:43;;;;;;;25.77;12.73;;;;;;;11.62;100.00;100473.66;5138042;28;20513;-74
2024/03/14 06:06:14;;;;;;;26.58;12.50;;;;;;;11.69;100.00;100480.34;5138872;28;20046;-73
2024/03/14 06:08:45;;;;;;;24.60;11.80;;;;;;;11.63;100.00;100477.97;5136199;28;20038;-73
2024/03/14 06:11:15;;;;;;;22.80;11.80;;;;;;;11.76;100.00;100476.56;5140616;28;20110;-74
2024/03/14 06:13:45;;;;;;;24.75;12.10;;;;;;;11.75;100.00;100480.09;5143475;28;20030;-74
2024/03/14 06:16:15;;;;;;;25.55;11.90;;;;;;;11.70;100.00;100481.19;5141297;28;20058;-74
2024/03/14 06:18:46;;;;;;;23.13;11.90;;;;;;;11.74;100.00;100483.63;5136906;28;20027;-75
2024/03/14 06:21:16;;;;;;;27.35;11.85;;;;;;;11.66;100.00;100485.72;5137932;28;20054;-74
2024/03/14 06:23:49;;;;;;;24.73;11.88;;;;;;;11.64;100.00;100487.53;5143768;28;20042;-74
2024/03/14 06:26:19;;;;;;;30.80;11.88;;;;;;;11.70;100.00;100497.78;5138753;28;20045;-74
2024/03/14 06:28:54;;;;;;;25.58;12.85;;;;;;;11.69;100.00;100488.22;5137086;28;20019;-73
2024/03/14 06:31:24;;;;;;;21.17;11.05;;;;;;;11.81;100.00;100498.16;5134829;28;20026;-74
2024/03/14 06:33:54;;;;;;;21.45;11.52;;;;;;;11.87;100.00;100494.44;5136637;28;20046;-74
2024/03/14 06:36:26;;;;;;;22.08;11.70;;;;;;;11.88;100.00;100499.63;5154738;28;20029;-73
2024/03/14 06:38:57;;;;;;;22.95;11.90;;;;;;;12.01;100.00;100492.94;5139056;28;20066;-74
2024/03/14 06:41:27;;;;;;;25.30;11.63;;;;;;;12.17;100.00;100501.84;5141428;28;20061;-73
2024/03/14 06:43:57;;;;;;;22.85;11.50;;;;;;;12.19;100.00;100497.41;5139863;28;20026;-74
2024/03/14 06:46:28;;;;;;;24.05;11.23;;;;;;;12.21;100.00;100500.81;5141627;28;20026;-74
2024/03/14 06:48:59;;;;;;;21.08;10.82;;;;;;;12.35;100.00;100513.28;5140070;28;20033;-73
2024/03/14 06:51:29;;;;;;;19.77;10.32;;;;;;;12.55;100.00;100503.66;5135646;28;20023;-74
2024/03/14 06:54:00;;;;;;;21.65;10.93;;;;;;;12.73;100.00;100502.81;5142358;28;20031;-74
2024/03/14 06:56:31;;;;;;;20.80;11.63;;;;;;;12.89;100.00;100501.19;5140767;28;20089;-74
2024/03/14 06:59:04;;;;;;;20.83;11.00;;;;;;;13.20;100.00;100501.50;5160662;23;20046;-74
2024/03/14 07:01:35;;;;;;;21.00;11.38;;;;;;;13.46;100.00;100501.97;5126724;28;20274;-72
2024/03/14 07:04:05;;;;;;;19.25;10.02;;;;;;;13.58;100.00;100500.50;5121692;28;20033;-75
2024/03/14 07:06:36;;;;;;;19.33;10.82;;;;;;;13.64;100.00;100502.81;5144240;28;20081;-70
2024/03/14 07:09:09;;;;;;;18.05;10.30;;;;;;;13.65;100.00;100501.88;5128573;28;20027;-71
2024/03/14 07:11:42;;;;;;;20.42;10.18;;;;;;;13.68;100.00;100499.97;5126222;28;20490;-74
2024/03/14 07:14:12;;;;;;;20.98;10.88;;;;;;;13.77;100.00;100510.00;5126823;28;20054;-74
2024/03/14 07:16:42;;;;;;;16.63;9.02;;;;;;;14.07;100.00;100497.13;5126424;28;20027;-74
2024/03/14 07:19:13;;;;;;;19.17;10.45;;;;;;;14.04;100.00;100502.53;5128746;28;20462;-74
2024/03/14 07:21:44;;;;;;;17.80;9.77;;;;;;;14.21;99.33;100492.91;5128422;28;20038;-74
2024/03/14 07:24:15;;;;;;;16.05;9.52;;;;;;;14.14;98.41;100496.75;5134234;28;20043;-74
2024/03/14 07:26:46;;;;;;;17.08;9.80;;;;;;;14.17;97.35;100498.38;5136960;28;20034;-74
2024/03/14 07:29:16;;;;;;;17.77;9.07;;;;;;;14.16;97.14;100499.31;5129633;28;20364;-74
2024/03/14 07:31:51;;;;;;;17.02;9.82;;;;;;;14.28;97.53;100496.06;5138706;28;20085;-74
2024/03/14 07:34:24;;;;;;;16.50;9.80;;;;;;;14.29;96.48;100498.59;5132332;28;20026;-74
2024/03/14 07:36:56;;;;;;;16.33;9.30;;;;;;;13.98;96.75;100508.09;5133169;28;20042;-72
2024/03/14 07:39:29;;;;;;;15.07;8.82;;;;;;;13.90;98.58;100511.09;5136740;28;20113;-72
2024/03/14 07:41:59;;;;;;;16.90;9.65;;;;;;;13.80;99.50;100520.38;5136508;28;20030;-73
2024/03/14 07:44:31;;;;;;;19.38;9.25;;;;;;;13.73;98.50;100512.88;5135284;28;20471;-74
2024/03/14 07:47:04;;;;;;;16.27;9.02;;;;;;;13.71;99.51;100505.06;5132311;28;20022;-74
2024/03/14 07:49:35;;;;;;;15.40;8.43;;;;;;;13.70;100.00;100513.00;5133274;28;20030;-74
2024/03/14 07:52:05;;;;;;;14.48;8.13;;;;;;;13.58;100.00;100519.72;5135759;28;20657;-74
2024/03/14 07:54:36;;;;;;;16.02;8.80;;;;;;;13.60;99.92;100517.03;5128382;28;20038;-72
2024/03/14 07:57:07;;;;;;;15.32;9.00;;;;;;;13.59;99.82;100516.16;5131332;28;20085;-73
2024/03/14 07:59:37;;;;;;;14.52;8.70;;;;;;;13.65;100.00;100525.53;5131486;28;20022;-74
2024/03/14 08:02:10;;;;;;;15.43;9.38;;;;;;;13.62;100.00;100521.31;5132484;28;20038;-74
2024/03/14 08:04:45;;;;;;;13.82;8.13;;;;;;;13.74;100.00;100525.09;5128622;28;20109;-73
2024/03/14 08:07:17;;;;;;;14.63;8.60;;;;;;;13.73;100.00;100521.59;5133876;28;20035;-74
2024/03/14 08:09:48;;;;;;;13.30;8.15;;;;;;;13.85;100.00;100523.63;5131648;28;20056;-74
2024/03/14 08:12:20;;;;;;;15.40;9.07;;;;;;;13.86;99.96;100530.59;5131786;28;20034;-74
2024/03/14 08:14:58;;;;;;;14.75;8.20;;;;;;;13.79;98.95;100530.97;5129919;28;20093;-73
2024/03/14 08:17:28;;;;;;;14.73;8.55;;;;;;;13.84;99.23;100539.47;5133704;28;20033;-74
2024/03/14 08:20:07;;;;;;;14.68;8.43;;;;;;;13.89;99.52;100538.31;5135532;28;20490;-74
2024/03/14 08:22:37;;;;;;;15.73;8.10;;;;;;;13.86;99.05;100540.22;5138613;28;20039;-74
2024/03/14 08:25:15;;;;;;;13.68;8.07;;;;;;;14.01;99.27;100539.47;5139974;28;20379;-74
2024/03/14 08:27:47;;;;;;;15.65;8.45;;;;;;;14.00;98.29;100533.38;5136928;28;20041;-74
2024/03/14 08:30:17;;;;;;;13.65;7.60;;;;;;;14.11;98.25;100530.22;5135601;28;20074;-74
2024/03/14 08:32:49;;;;;;;14.25;8.05;;;;;;;14.19;97.21;100531.56;5138611;28;20039;-73
2024/03/14 08:35:20;;;;;;;12.77;7.60;;;;;;;14.17;97.45;100530.78;5119786;28;20042;-74
2024/03/14 08:37:50;;;;;;;14.98;8.05;;;;;;;14.24;98.23;100534.78;5138173;28;20018;-73
2024/03/14 08:40:23;;;;;;;12.48;7.70;;;;;;;14.23;95.16;100533.09;5135164;28;20018;-74
2024/03/14 08:42:53;;;;;;;13.13;7.05;;;;;;;14.44;96.36;100529.34;5137297;28;20438;-74
2024/03/14 08:45:23;;;;;;;13.02;7.50;;;;;;;14.49;95.69;100534.38;5136327;28;20127;-73
2024/03/14 08:47:53;;;;;;;12.63;7.30;;;;;;;14.28;94.59;100530.25;5137286;28;20504;-74
2024/03/14 08:50:24;;;;;;;13.00;7.03;;;;;;;14.39;94.46;100536.63;5138652;28;20027;-74
2024/03/14 08:52:55;;;;;;;11.85;7.00;;;;;;;14.58;95.38;100532.13;5140397;28;20030;-73
2024/03/14 08:55:34;;;;;;;11.27;6.72;;;;;;;14.99;93.84;100534.25;5144537;28;20060;-74
2024/03/14 08:58:04;;;;;;;11.57;6.75;;;;;;;15.41;91.17;100537.22;5141584;28;20498;-71
2024/03/14 09:00:34;;;;;;;11.85;7.03;;;;;;;15.68;91.34;100529.53;5139968;28;20206;-73
2024/03/14 09:03:05;;;;;;;11.15;6.72;;;;;;;16.02;88.16;100535.38;5141728;28;20549;-72
2024/03/14 09:05:36;;;;;;;11.05;5.95;;;;;;;16.01;86.98;100528.41;5145083;28;20055;-74
2024/03/14 09:08:07;;;;;;;11.45;6.47;;;;;;;16.47;86.30;100530.06;5138033;28;20034;-74
2024/03/14 09:10:38;;;;;;;10.52;5.85;;;;;;;16.81;84.53;100521.78;5140307;28;20026;-74
2024/03/14 09:13:08;;;;;;;10.20;5.95;;;;;;;17.07;83.72;100524.50;5143407;28;20045;-74
2024/03/14 09:15:39;;;;;;;8.88;5.68;;;;;;;16.27;83.46;100527.75;5144820;28;20030;-74
2024/03/14 09:18:10;;;;;;;12.27;5.75;;;;;;;16.51;83.27;100522.81;5137282;28;20118;-74
2024/03/14 09:20:42;;;;;;;9.45;5.68;;;;;;;16.89;84.34;100520.38;5143848;28;20026;-73
2024/03/14 09:23:19;;;;;;;10.80;5.70;;;;;;;17.34;82.29;100527.22;5139498;28;20093;-71
2024/03/14 09:25:50;;;;;;;9.07;5.28;;;;;;;17.28;81.20;100524.97;5135423;28;20660;-70
2024/03/14 09:28:21;;;;;;;9.57;5.30;;;;;;;17.78;80.22;100522.53;5137655;28;20033;-72
2024/03/14 09:30:57;;;;;;;7.38;4.72;;;;;;;17.88;77.37;100521.00;5143334;28;20019;-74
2024/03/14 09:33:28;;;;;;;8.13;4.35;;;;;;;17.81;75.63;100522.34;5142182;28;20026;-74
2024/03/14 09:36:00;;;;;;;10.27;4.53;;;;;;;17.88;75.03;100521.00;5137450;28;20371;-74
2024/03/14 09:38:33;;;;;;;8.73;4.47;;;;;;;17.71;76.95;100518.59;5135919;28;20029;-72
2024/03/14 09:41:04;;;;;;;8.05;4.68;;;;;;;18.00;75.84;100513.09;5141176;28;20109;-74
2024/03/14 09:43:35;;;;;;;8.43;4.20;;;;;;;17.96;74.87;100516.03;5136462;28;20038;-74
2024/03/14 09:46:07;;;;;;;6.95;3.60;;;;;;;17.97;74.25;100520.41;5141022;28;20030;-74
2024/03/14 09:48:37;;;;;;;6.95;3.45;;;;;;;18.33;72.53;100513.50;5137457;28;20041;-74
2024/03/14 09:51:09;;;;;;;5.95;3.20;;;;;;;18.12;72.72;100514.06;5138741;28;20047;-74
2024/03/14 09:53:42;;;;;;;5.82;3.90;;;;;;;18.29;72.46;100508.50;5137721;28;20030;-74
2024/03/14 09:56:12;;;;;;;9.20;3.97;;;;;;;17.87;73.66;100517.53;5143554;28;20113;-74
2024/03/14 09:58:44;;;;;;;6.03;3.28;;;;;;;17.59;73.80;100514.97;5137441;28;20110;-74
2024/03/14 10:01:16;;;;;;;5.38;3.30;;;;;;;17.52;74.73;100511.03;5144808;28;20348;-74
2024/03/14 10:03:47;;;;;;;9.13;3.55;;;;;;;17.26;75.36;100514.47;5135008;28;20259;-74
2024/03/14 10:06:18;;;;;;;7.22;3.90;;;;;;;17.16;76.19;100504.59;5137461;28;20030;-74
2024/03/14 10:08:50;;;;;;;6.07;3.47;;;;;;;17.05;76.91;100510.56;5135665;28;20122;-74
2024/03/14 10:11:21;;;;;;;3.55;2.40;;;;;;;17.04;75.28;100508.00;5138847;28;20142;-74
2024/03/14 10:13:51;;;;;;;5.28;2.35;;;;;;;17.08;75.80;100510.34;5134462;28;20054;-74
2024/03/14 10:16:21;;;;;;;4.85;2.22;;;;;;;17.07;74.62;100500.75;5139777;28;20383;-74
2024/03/14 10:18:52;;;;;;;3.95;2.20;;;;;;;17.21;75.19;100507.78;5138052;28;20070;-74
2024/03/14 10:21:22;;;;;;;5.53;2.40;;;;;;;17.22;75.18;100505.06;5140028;28;20088;-74
2024/03/14 10:23:53;;;;;;;6.20;3.10;;;;;;;17.29;75.46;100493.13;5136222;28;20037;-74
2024/03/14 10:26:23;;;;;;;5.55;3.30;;;;;;;17.29;74.33;100490.50;5141474;28;20206;-74
2024/03/14 10:28:53;;;;;;;6.68;3.20;;;;;;;17.33;74.43;100488.50;5137765;28;20522;-73
2024/03/14 10:31:24;;;;;;;4.82;2.90;;;;;;;17.27;74.15;100483.59;5139574;28;20046;-73
2024/03/14 10:33:55;;;;;;;4.78;2.67;;;;;;;17.00;75.96;100488.84;5138285;28;20035;-74
2024/03/14 10:36:27;;;;;;;4.45;2.70;;;;;;;16.83;75.69;100493.50;5137287;28;20043;-74
2024/03/14 10:39:01;;;;;;;7.72;3.85;;;;;;;16.65;76.51;100484.09;5139420;28;20442;-74
2024/03/14 10:41:33;;;;;;;7.18;3.45;;;;;;;16.80;76.36;100483.97;5136617;28;20027;-70
2024/03/14 10:44:06;;;;;;;6.53;3.20;;;;;;;17.01;76.50;100489.72;5139999;28;20026;-74
2024/03/14 10:46:37;;;;;;;6.75;3.78;;;;;;;16.97;75.38;100485.56;5136727;28;20571;-70
2024/03/14 10:49:11;;;;;;;5.60;3.30;;;;;;;16.97;75.53;100482.94;5136222;28;20037;-74
2024/03/14 10:51:42;;;;;;;7.60;4.55;;;;;;;17.18;75.23;100478.94;5137181;28;20061;-74
2024/03/14 10:54:14;;;;;;;5.32;3.35;;;;;;;17.26;76.00;100468.69;5138365;28;20054;-74
2024/03/14 10:56:45;;;;;;;4.75;3.00;;;;;;;17.53;76.01;100464.31;5136835;28;20456;-72
2024/03/14 10:59:16;;;;;;;4.65;1.95;;;;;;;17.76;72.67;100466.28;5136754;28;20085;-74
2024/03/14 11:01:50;;;;;;;3.55;1.70;;;;;;;18.08;74.07;100457.03;5138342;28;20490;-74
2024/03/14 11:04:22;;;;;;;4.28;1.67;;;;;;;18.40;72.06;100458.34;5139377;28;20073;-74
2024/03/14 11:06:58;;;;;;;4.47;1.80;;;;;;;18.47;71.32;100459.59;5136857;28;20161;-74
2024/03/14 11:09:30;;;;;;;;;;;;;;;18.36;71.28;100459.53;5140623;28;20026;-74
2024/03/14 11:12:04;;;;;;;4.20;2.08;;;;;;;18.19;72.35;100465.91;5136339;28;19953;-74
2024/03/14 11:14:43;;;;;;;5.72;2.50;;;;;;;18.51;73.53;100463.75;5140856;28;20085;-73
2024/03/14 11:17:14;;;;;;;4.78;2.70;;;;;;;18.49;73.31;100460.38;5136278;28;20038;-74
2024/03/14 11:19:50;;;;;;;5.88;3.40;;;;;;;18.20;72.24;100456.19;5137030;28;20467;-74
2024/03/14 11:22:21;;;;;;;4.82;3.22;;;;;;;18.16;72.82;100460.00;5137183;28;20041;-73
2024/03/14 11:24:53;;;;;;;5.57;3.45;;;;;;;18.06;73.57;100454.50;5136951;28;20027;-74
2024/03/14 11:27:25;;;;;;;5.15;3.10;;;;;;;18.14;73.20;100453.97;5137057;28;20057;-74